sensor_id;sensor_type;location;lat;lon;timestamp;P1;durP1;ratioP1;P2;durP2;ratioP2
28343;SDS011;15597;50.914;6.638;2023-04-24T00:02:21;1.20;;;0.60;;
28343;SDS011;15597;50.914;6.638;2023-04-24T00:04:47;1.75;;;0.80;;
28343;SDS011;15597;50.914;6.638;2023-04-24T00:07:14;4.00;;;0.65;;
28343;SDS011;15597;50.914;6.638;2023-04-24T00:09:44;2.55;;;0.80;;
28343;SDS011;15597;50.914;6.638;2023-04-24T00:12:10;5.20;;;0.85;;
28343;SDS011;15597;50.914;6.638;2023-04-24T00:14:35;2.17;;;0.70;;
28343;SDS011;15597;50.914;6.638;2023-04-24T00:17:01;1.50;;;0.63;;
28343;SDS011;15597;50.914;6.638;2023-04-24T00:21:55;1.65;;;0.80;;
28343;SDS011;15597;50.914;6.638;2023-04-24T00:24:21;2.08;;;0.95;;
28343;SDS011;15597;50.914;6.638;2023-04-24T00:26:46;1.77;;;0.70;;
28343;SDS011;15597;50.914;6.638;2023-04-24T00:29:12;1.83;;;0.80;;
28343;SDS011;15597;50.914;6.638;2023-04-24T00:31:37;0.75;;;0.50;;
28343;SDS011;15597;50.914;6.638;2023-04-24T00:34:03;2.97;;;0.90;;
28343;SDS011;15597;50.914;6.638;2023-04-24T00:36:37;1.75;;;0.88;;
28343;SDS011;15597;50.914;6.638;2023-04-24T00:39:02;2.38;;;1.00;;
28343;SDS011;15597;50.914;6.638;2023-04-24T00:41:28;2.35;;;0.68;;
28343;SDS011;15597;50.914;6.638;2023-04-24T00:43:55;1.38;;;0.60;;
28343;SDS011;15597;50.914;6.638;2023-04-24T00:46:20;1.60;;;0.70;;
28343;SDS011;15597;50.914;6.638;2023-04-24T00:48:46;2.35;;;0.88;;
28343;SDS011;15597;50.914;6.638;2023-04-24T00:51:12;2.60;;;0.82;;
28343;SDS011;15597;50.914;6.638;2023-04-24T00:53:37;2.00;;;0.98;;
28343;SDS011;15597;50.914;6.638;2023-04-24T00:56:03;4.30;;;0.82;;
28343;SDS011;15597;50.914;6.638;2023-04-24T00:58:30;1.85;;;0.90;;
28343;SDS011;15597;50.914;6.638;2023-04-24T01:00:56;4.63;;;1.20;;
28343;SDS011;15597;50.914;6.638;2023-04-24T01:03:25;6.43;;;1.77;;
28343;SDS011;15597;50.914;6.638;2023-04-24T01:05:54;4.30;;;1.60;;
28343;SDS011;15597;50.914;6.638;2023-04-24T01:08:20;3.17;;;1.08;;
28343;SDS011;15597;50.914;6.638;2023-04-24T01:10:49;3.25;;;1.20;;
28343;SDS011;15597;50.914;6.638;2023-04-24T01:13:18;1.58;;;0.85;;
28343;SDS011;15597;50.914;6.638;2023-04-24T01:15:45;3.83;;;1.48;;
28343;SDS011;15597;50.914;6.638;2023-04-24T01:18:11;4.30;;;1.27;;
28343;SDS011;15597;50.914;6.638;2023-04-24T01:20:37;5.68;;;1.83;;
28343;SDS011;15597;50.914;6.638;2023-04-24T01:25:31;4.85;;;1.60;;
28343;SDS011;15597;50.914;6.638;2023-04-24T01:27:57;4.55;;;1.67;;
28343;SDS011;15597;50.914;6.638;2023-04-24T01:30:23;6.13;;;2.05;;
28343;SDS011;15597;50.914;6.638;2023-04-24T01:32:49;2.72;;;1.20;;
28343;SDS011;15597;50.914;6.638;2023-04-24T01:35:15;3.22;;;1.58;;
28343;SDS011;15597;50.914;6.638;2023-04-24T01:37:41;6.15;;;2.55;;
28343;SDS011;15597;50.914;6.638;2023-04-24T01:40:06;4.10;;;1.63;;
28343;SDS011;15597;50.914;6.638;2023-04-24T01:42:32;5.00;;;1.58;;
28343;SDS011;15597;50.914;6.638;2023-04-24T01:45:01;4.45;;;2.00;;
28343;SDS011;15597;50.914;6.638;2023-04-24T01:47:30;5.13;;;1.77;;
28343;SDS011;15597;50.914;6.638;2023-04-24T01:49:56;4.35;;;1.55;;
28343;SDS011;15597;50.914;6.638;2023-04-24T01:52:22;4.97;;;1.90;;
28343;SDS011;15597;50.914;6.638;2023-04-24T01:54:47;3.15;;;1.40;;
28343;SDS011;15597;50.914;6.638;2023-04-24T01:57:13;5.03;;;2.10;;
28343;SDS011;15597;50.914;6.638;2023-04-24T01:59:40;4.38;;;1.88;;
28343;SDS011;15597;50.914;6.638;2023-04-24T02:02:06;5.20;;;2.35;;
28343;SDS011;15597;50.914;6.638;2023-04-24T02:04:31;3.92;;;1.80;;
28343;SDS011;15597;50.914;6.638;2023-04-24T02:06:58;4.85;;;2.08;;
28343;SDS011;15597;50.914;6.638;2023-04-24T02:09:23;3.58;;;1.60;;
28343;SDS011;15597;50.914;6.638;2023-04-24T02:11:50;3.30;;;1.60;;
28343;SDS011;15597;50.914;6.638;2023-04-24T02:14:17;4.30;;;1.98;;
28343;SDS011;15597;50.914;6.638;2023-04-24T02:16:42;5.93;;;2.67;;
28343;SDS011;15597;50.914;6.638;2023-04-24T02:19:09;6.30;;;2.85;;
28343;SDS011;15597;50.914;6.638;2023-04-24T02:21:35;4.90;;;2.30;;
28343;SDS011;15597;50.914;6.638;2023-04-24T02:24:01;4.65;;;1.77;;
28343;SDS011;15597;50.914;6.638;2023-04-24T02:26:26;6.28;;;1.88;;
28343;SDS011;15597;50.914;6.638;2023-04-24T02:28:52;4.20;;;1.60;;
28343;SDS011;15597;50.914;6.638;2023-04-24T02:31:19;6.15;;;2.30;;
28343;SDS011;15597;50.914;6.638;2023-04-24T02:33:47;4.82;;;2.33;;
28343;SDS011;15597;50.914;6.638;2023-04-24T02:36:13;5.55;;;2.60;;
28343;SDS011;15597;50.914;6.638;2023-04-24T02:38:39;9.52;;;3.35;;
28343;SDS011;15597;50.914;6.638;2023-04-24T02:41:05;6.82;;;2.10;;
28343;SDS011;15597;50.914;6.638;2023-04-24T02:43:31;5.15;;;2.00;;
28343;SDS011;15597;50.914;6.638;2023-04-24T02:45:58;4.45;;;2.10;;
28343;SDS011;15597;50.914;6.638;2023-04-24T02:48:24;5.07;;;1.95;;
28343;SDS011;15597;50.914;6.638;2023-04-24T02:50:50;4.38;;;1.73;;
28343;SDS011;15597;50.914;6.638;2023-04-24T02:53:16;4.13;;;1.98;;
28343;SDS011;15597;50.914;6.638;2023-04-24T02:55:42;4.47;;;2.10;;
28343;SDS011;15597;50.914;6.638;2023-04-24T02:58:07;6.05;;;3.25;;
28343;SDS011;15597;50.914;6.638;2023-04-24T03:00:33;7.15;;;2.30;;
28343;SDS011;15597;50.914;6.638;2023-04-24T03:02:59;4.97;;;2.13;;
28343;SDS011;15597;50.914;6.638;2023-04-24T03:05:25;3.30;;;1.58;;
28343;SDS011;15597;50.914;6.638;2023-04-24T03:07:50;5.75;;;2.10;;
28343;SDS011;15597;50.914;6.638;2023-04-24T03:10:17;5.22;;;2.53;;
28343;SDS011;15597;50.914;6.638;2023-04-24T03:12:43;6.32;;;3.22;;
28343;SDS011;15597;50.914;6.638;2023-04-24T03:15:09;5.03;;;2.67;;
28343;SDS011;15597;50.914;6.638;2023-04-24T03:17:36;3.72;;;1.77;;
28343;SDS011;15597;50.914;6.638;2023-04-24T03:20:02;6.65;;;3.55;;
28343;SDS011;15597;50.914;6.638;2023-04-24T03:22:30;6.63;;;2.70;;
28343;SDS011;15597;50.914;6.638;2023-04-24T03:24:58;5.10;;;2.50;;
28343;SDS011;15597;50.914;6.638;2023-04-24T03:27:24;6.25;;;3.28;;
28343;SDS011;15597;50.914;6.638;2023-04-24T03:29:55;5.45;;;2.50;;
28343;SDS011;15597;50.914;6.638;2023-04-24T03:32:25;3.92;;;1.73;;
28343;SDS011;15597;50.914;6.638;2023-04-24T03:34:51;4.82;;;2.05;;
28343;SDS011;15597;50.914;6.638;2023-04-24T03:37:17;7.40;;;3.08;;
28343;SDS011;15597;50.914;6.638;2023-04-24T03:39:49;8.00;;;3.90;;
28343;SDS011;15597;50.914;6.638;2023-04-24T03:44:50;5.32;;;2.65;;
28343;SDS011;15597;50.914;6.638;2023-04-24T03:47:17;9.73;;;3.35;;
28343;SDS011;15597;50.914;6.638;2023-04-24T03:49:44;9.25;;;3.08;;
28343;SDS011;15597;50.914;6.638;2023-04-24T03:52:09;6.05;;;2.92;;
28343;SDS011;15597;50.914;6.638;2023-04-24T03:54:35;5.80;;;3.17;;
28343;SDS011;15597;50.914;6.638;2023-04-24T03:57:01;5.97;;;2.70;;
28343;SDS011;15597;50.914;6.638;2023-04-24T03:59:30;5.47;;;2.47;;
28343;SDS011;15597;50.914;6.638;2023-04-24T04:02:16;4.60;;;1.90;;
28343;SDS011;15597;50.914;6.638;2023-04-24T04:04:42;4.57;;;2.35;;
28343;SDS011;15597;50.914;6.638;2023-04-24T04:07:09;5.93;;;3.03;;
28343;SDS011;15597;50.914;6.638;2023-04-24T04:09:34;4.57;;;2.28;;
28343;SDS011;15597;50.914;6.638;2023-04-24T04:12:00;4.97;;;1.95;;
28343;SDS011;15597;50.914;6.638;2023-04-24T04:14:27;6.03;;;2.53;;
28343;SDS011;15597;50.914;6.638;2023-04-24T04:16:52;8.52;;;2.80;;
28343;SDS011;15597;50.914;6.638;2023-04-24T04:19:19;5.03;;;1.80;;
28343;SDS011;15597;50.914;6.638;2023-04-24T04:21:44;4.40;;;2.15;;
28343;SDS011;15597;50.914;6.638;2023-04-24T04:24:37;7.13;;;2.92;;
28343;SDS011;15597;50.914;6.638;2023-04-24T04:27:04;5.35;;;2.00;;
28343;SDS011;15597;50.914;6.638;2023-04-24T04:29:35;4.78;;;2.47;;
28343;SDS011;15597;50.914;6.638;2023-04-24T04:32:03;5.53;;;2.25;;
28343;SDS011;15597;50.914;6.638;2023-04-24T04:34:29;5.35;;;2.40;;
28343;SDS011;15597;50.914;6.638;2023-04-24T04:36:57;4.68;;;2.25;;
28343;SDS011;15597;50.914;6.638;2023-04-24T04:39:36;6.35;;;2.50;;
28343;SDS011;15597;50.914;6.638;2023-04-24T04:42:05;5.07;;;2.20;;
28343;SDS011;15597;50.914;6.638;2023-04-24T04:44:37;4.57;;;2.22;;
28343;SDS011;15597;50.914;6.638;2023-04-24T04:47:05;6.10;;;2.58;;
28343;SDS011;15597;50.914;6.638;2023-04-24T04:49:33;5.72;;;2.50;;
28343;SDS011;15597;50.914;6.638;2023-04-24T04:51:59;5.90;;;2.35;;
28343;SDS011;15597;50.914;6.638;2023-04-24T04:54:26;7.13;;;3.40;;
28343;SDS011;15597;50.914;6.638;2023-04-24T04:56:53;6.30;;;2.47;;
28343;SDS011;15597;50.914;6.638;2023-04-24T04:59:19;6.97;;;3.00;;
28343;SDS011;15597;50.914;6.638;2023-04-24T05:01:48;5.15;;;2.35;;
28343;SDS011;15597;50.914;6.638;2023-04-24T05:04:16;4.85;;;2.33;;
28343;SDS011;15597;50.914;6.638;2023-04-24T05:06:41;5.43;;;3.05;;
28343;SDS011;15597;50.914;6.638;2023-04-24T05:09:07;7.75;;;2.55;;
28343;SDS011;15597;50.914;6.638;2023-04-24T05:11:45;4.90;;;1.85;;
28343;SDS011;15597;50.914;6.638;2023-04-24T05:14:11;5.85;;;2.25;;
28343;SDS011;15597;50.914;6.638;2023-04-24T05:16:39;7.05;;;2.90;;
28343;SDS011;15597;50.914;6.638;2023-04-24T05:19:06;4.65;;;2.40;;
28343;SDS011;15597;50.914;6.638;2023-04-24T05:21:35;4.15;;;2.15;;
28343;SDS011;15597;50.914;6.638;2023-04-24T05:24:01;5.90;;;2.40;;
28343;SDS011;15597;50.914;6.638;2023-04-24T05:26:58;9.23;;;3.10;;
28343;SDS011;15597;50.914;6.638;2023-04-24T05:29:30;7.20;;;2.42;;
28343;SDS011;15597;50.914;6.638;2023-04-24T05:31:59;4.97;;;2.33;;
28343;SDS011;15597;50.914;6.638;2023-04-24T05:36:55;7.25;;;2.33;;
28343;SDS011;15597;50.914;6.638;2023-04-24T05:39:21;4.70;;;2.10;;
28343;SDS011;15597;50.914;6.638;2023-04-24T05:41:46;4.43;;;2.42;;
28343;SDS011;15597;50.914;6.638;2023-04-24T05:44:12;5.43;;;2.30;;
28343;SDS011;15597;50.914;6.638;2023-04-24T05:46:37;5.07;;;2.20;;
28343;SDS011;15597;50.914;6.638;2023-04-24T05:49:03;6.03;;;2.00;;
28343;SDS011;15597;50.914;6.638;2023-04-24T05:51:30;5.18;;;2.17;;
28343;SDS011;15597;50.914;6.638;2023-04-24T05:53:56;5.82;;;2.10;;
28343;SDS011;15597;50.914;6.638;2023-04-24T05:56:23;3.40;;;1.60;;
28343;SDS011;15597;50.914;6.638;2023-04-24T05:58:49;3.80;;;1.80;;
28343;SDS011;15597;50.914;6.638;2023-04-24T06:01:15;5.63;;;1.98;;
28343;SDS011;15597;50.914;6.638;2023-04-24T06:03:43;3.55;;;1.70;;
28343;SDS011;15597;50.914;6.638;2023-04-24T06:06:08;6.10;;;1.70;;
28343;SDS011;15597;50.914;6.638;2023-04-24T06:08:35;4.78;;;1.80;;
28343;SDS011;15597;50.914;6.638;2023-04-24T06:11:01;3.95;;;1.70;;
28343;SDS011;15597;50.914;6.638;2023-04-24T06:13:27;3.97;;;1.67;;
28343;SDS011;15597;50.914;6.638;2023-04-24T06:16:12;4.22;;;1.70;;
28343;SDS011;15597;50.914;6.638;2023-04-24T06:18:41;3.78;;;1.50;;
28343;SDS011;15597;50.914;6.638;2023-04-24T06:21:07;5.55;;;1.67;;
28343;SDS011;15597;50.914;6.638;2023-04-24T06:23:32;4.18;;;1.70;;
28343;SDS011;15597;50.914;6.638;2023-04-24T06:25:58;3.92;;;1.45;;
28343;SDS011;15597;50.914;6.638;2023-04-24T06:28:24;3.38;;;1.50;;
28343;SDS011;15597;50.914;6.638;2023-04-24T06:30:51;3.08;;;1.50;;
28343;SDS011;15597;50.914;6.638;2023-04-24T06:33:16;6.07;;;1.70;;
28343;SDS011;15597;50.914;6.638;2023-04-24T06:35:42;5.10;;;1.45;;
28343;SDS011;15597;50.914;6.638;2023-04-24T06:38:08;4.55;;;1.83;;
28343;SDS011;15597;50.914;6.638;2023-04-24T06:40:33;3.88;;;1.48;;
28343;SDS011;15597;50.914;6.638;2023-04-24T06:42:59;3.90;;;1.50;;
28343;SDS011;15597;50.914;6.638;2023-04-24T06:45:25;3.67;;;1.63;;
28343;SDS011;15597;50.914;6.638;2023-04-24T06:47:51;3.22;;;1.52;;
28343;SDS011;15597;50.914;6.638;2023-04-24T06:50:16;4.00;;;1.67;;
28343;SDS011;15597;50.914;6.638;2023-04-24T06:52:45;3.97;;;1.70;;
28343;SDS011;15597;50.914;6.638;2023-04-24T06:55:11;4.43;;;1.60;;
28343;SDS011;15597;50.914;6.638;2023-04-24T06:57:36;3.85;;;1.45;;
28343;SDS011;15597;50.914;6.638;2023-04-24T07:00:03;3.78;;;1.60;;
28343;SDS011;15597;50.914;6.638;2023-04-24T07:02:30;3.75;;;1.65;;
28343;SDS011;15597;50.914;6.638;2023-04-24T07:04:56;4.57;;;1.70;;
28343;SDS011;15597;50.914;6.638;2023-04-24T07:07:22;3.85;;;1.50;;
28343;SDS011;15597;50.914;6.638;2023-04-24T07:09:48;6.03;;;1.55;;
28343;SDS011;15597;50.914;6.638;2023-04-24T07:12:16;3.25;;;1.50;;
28343;SDS011;15597;50.914;6.638;2023-04-24T07:14:42;3.83;;;1.73;;
28343;SDS011;15597;50.914;6.638;2023-04-24T07:17:08;6.30;;;1.80;;
28343;SDS011;15597;50.914;6.638;2023-04-24T07:19:34;3.55;;;1.70;;
28343;SDS011;15597;50.914;6.638;2023-04-24T07:22:02;3.33;;;1.40;;
28343;SDS011;15597;50.914;6.638;2023-04-24T07:24:28;3.38;;;1.50;;
28343;SDS011;15597;50.914;6.638;2023-04-24T07:26:54;3.30;;;1.35;;
28343;SDS011;15597;50.914;6.638;2023-04-24T07:29:20;3.97;;;1.20;;
28343;SDS011;15597;50.914;6.638;2023-04-24T07:31:46;2.65;;;1.10;;
28343;SDS011;15597;50.914;6.638;2023-04-24T07:34:12;2.83;;;1.20;;
28343;SDS011;15597;50.914;6.638;2023-04-24T07:36:38;4.53;;;1.10;;
28343;SDS011;15597;50.914;6.638;2023-04-24T07:39:05;4.18;;;1.38;;
28343;SDS011;15597;50.914;6.638;2023-04-24T07:41:31;6.85;;;1.30;;
28343;SDS011;15597;50.914;6.638;2023-04-24T07:43:56;3.30;;;1.17;;
28343;SDS011;15597;50.914;6.638;2023-04-24T07:46:22;2.75;;;1.30;;
28343;SDS011;15597;50.914;6.638;2023-04-24T07:48:48;4.32;;;1.33;;
28343;SDS011;15597;50.914;6.638;2023-04-24T07:51:14;3.92;;;1.30;;
28343;SDS011;15597;50.914;6.638;2023-04-24T07:53:40;3.58;;;1.38;;
28343;SDS011;15597;50.914;6.638;2023-04-24T07:56:07;3.78;;;1.55;;
28343;SDS011;15597;50.914;6.638;2023-04-24T07:58:32;3.17;;;1.30;;
28343;SDS011;15597;50.914;6.638;2023-04-24T08:00:58;3.20;;;1.30;;
28343;SDS011;15597;50.914;6.638;2023-04-24T08:03:23;2.00;;;1.10;;
28343;SDS011;15597;50.914;6.638;2023-04-24T08:05:49;3.63;;;1.33;;
28343;SDS011;15597;50.914;6.638;2023-04-24T08:08:16;2.60;;;1.23;;
28343;SDS011;15597;50.914;6.638;2023-04-24T08:10:42;4.05;;;1.17;;
28343;SDS011;15597;50.914;6.638;2023-04-24T08:13:08;3.90;;;1.20;;
28343;SDS011;15597;50.914;6.638;2023-04-24T08:15:34;2.58;;;0.90;;
28343;SDS011;15597;50.914;6.638;2023-04-24T08:17:59;2.17;;;1.05;;
28343;SDS011;15597;50.914;6.638;2023-04-24T08:20:25;1.90;;;0.90;;
28343;SDS011;15597;50.914;6.638;2023-04-24T08:22:51;2.72;;;1.17;;
28343;SDS011;15597;50.914;6.638;2023-04-24T08:25:16;2.75;;;1.10;;
28343;SDS011;15597;50.914;6.638;2023-04-24T08:27:43;4.97;;;1.10;;
28343;SDS011;15597;50.914;6.638;2023-04-24T08:30:08;2.83;;;1.10;;
28343;SDS011;15597;50.914;6.638;2023-04-24T08:32:35;2.70;;;1.10;;
28343;SDS011;15597;50.914;6.638;2023-04-24T08:35:02;3.67;;;1.30;;
28343;SDS011;15597;50.914;6.638;2023-04-24T08:37:28;3.88;;;1.70;;
28343;SDS011;15597;50.914;6.638;2023-04-24T08:39:54;4.07;;;1.60;;
28343;SDS011;15597;50.914;6.638;2023-04-24T08:42:20;4.88;;;1.58;;
28343;SDS011;15597;50.914;6.638;2023-04-24T08:44:47;3.80;;;1.55;;
28343;SDS011;15597;50.914;6.638;2023-04-24T08:47:14;4.63;;;1.58;;
28343;SDS011;15597;50.914;6.638;2023-04-24T08:49:41;3.67;;;1.67;;
28343;SDS011;15597;50.914;6.638;2023-04-24T08:52:07;4.63;;;1.67;;
28343;SDS011;15597;50.914;6.638;2023-04-24T08:54:33;6.00;;;2.20;;
28343;SDS011;15597;50.914;6.638;2023-04-24T08:57:00;5.32;;;2.13;;
28343;SDS011;15597;50.914;6.638;2023-04-24T09:01:55;4.28;;;1.80;;
28343;SDS011;15597;50.914;6.638;2023-04-24T09:04:21;5.20;;;1.80;;
28343;SDS011;15597;50.914;6.638;2023-04-24T09:06:50;5.65;;;2.05;;
28343;SDS011;15597;50.914;6.638;2023-04-24T09:09:16;5.20;;;2.45;;
28343;SDS011;15597;50.914;6.638;2023-04-24T09:11:43;5.25;;;2.15;;
28343;SDS011;15597;50.914;6.638;2023-04-24T09:14:09;5.05;;;2.08;;
28343;SDS011;15597;50.914;6.638;2023-04-24T09:16:36;5.43;;;2.10;;
28343;SDS011;15597;50.914;6.638;2023-04-24T09:19:01;7.95;;;2.53;;
28343;SDS011;15597;50.914;6.638;2023-04-24T09:21:34;5.07;;;2.30;;
28343;SDS011;15597;50.914;6.638;2023-04-24T09:24:01;4.38;;;2.17;;
28343;SDS011;15597;50.914;6.638;2023-04-24T09:26:30;4.85;;;2.33;;
28343;SDS011;15597;50.914;6.638;2023-04-24T09:28:59;4.57;;;2.28;;
28343;SDS011;15597;50.914;6.638;2023-04-24T09:31:26;4.95;;;2.13;;
28343;SDS011;15597;50.914;6.638;2023-04-24T09:36:32;6.72;;;1.98;;
28343;SDS011;15597;50.914;6.638;2023-04-24T09:39:00;6.38;;;2.30;;
28343;SDS011;15597;50.914;6.638;2023-04-24T09:41:26;4.68;;;1.95;;
28343;SDS011;15597;50.914;6.638;2023-04-24T09:43:53;4.45;;;1.67;;
28343;SDS011;15597;50.914;6.638;2023-04-24T09:46:20;5.63;;;2.10;;
28343;SDS011;15597;50.914;6.638;2023-04-24T09:48:47;3.50;;;1.60;;
28343;SDS011;15597;50.914;6.638;2023-04-24T09:51:13;5.50;;;2.53;;
28343;SDS011;15597;50.914;6.638;2023-04-24T09:53:44;3.75;;;1.83;;
28343;SDS011;15597;50.914;6.638;2023-04-24T09:56:13;5.25;;;2.20;;
28343;SDS011;15597;50.914;6.638;2023-04-24T09:58:39;7.28;;;2.35;;
28343;SDS011;15597;50.914;6.638;2023-04-24T10:01:05;5.93;;;2.28;;
28343;SDS011;15597;50.914;6.638;2023-04-24T10:03:31;5.72;;;2.17;;
28343;SDS011;15597;50.914;6.638;2023-04-24T10:06:01;4.70;;;2.10;;
28343;SDS011;15597;50.914;6.638;2023-04-24T10:08:32;9.05;;;2.67;;
28343;SDS011;15597;50.914;6.638;2023-04-24T10:10:59;4.68;;;2.28;;
28343;SDS011;15597;50.914;6.638;2023-04-24T10:13:25;8.70;;;2.88;;
28343;SDS011;15597;50.914;6.638;2023-04-24T10:15:51;7.15;;;2.70;;
28343;SDS011;15597;50.914;6.638;2023-04-24T10:18:17;6.45;;;2.05;;
28343;SDS011;15597;50.914;6.638;2023-04-24T10:20:46;5.40;;;1.92;;
28343;SDS011;15597;50.914;6.638;2023-04-24T10:23:12;6.63;;;2.53;;
28343;SDS011;15597;50.914;6.638;2023-04-24T10:25:37;5.88;;;1.77;;
28343;SDS011;15597;50.914;6.638;2023-04-24T10:28:03;6.78;;;2.35;;
28343;SDS011;15597;50.914;6.638;2023-04-24T10:30:33;5.60;;;1.88;;
28343;SDS011;15597;50.914;6.638;2023-04-24T10:33:04;4.82;;;1.90;;
28343;SDS011;15597;50.914;6.638;2023-04-24T10:35:32;10.60;;;3.20;;
28343;SDS011;15597;50.914;6.638;2023-04-24T10:38:04;5.45;;;2.30;;
28343;SDS011;15597;50.914;6.638;2023-04-24T10:40:34;8.13;;;2.53;;
28343;SDS011;15597;50.914;6.638;2023-04-24T10:43:04;4.93;;;2.00;;
28343;SDS011;15597;50.914;6.638;2023-04-24T10:45:33;4.00;;;1.73;;
28343;SDS011;15597;50.914;6.638;2023-04-24T10:48:03;9.00;;;2.72;;
28343;SDS011;15597;50.914;6.638;2023-04-24T10:50:44;6.55;;;2.22;;
28343;SDS011;15597;50.914;6.638;2023-04-24T10:53:19;8.85;;;2.72;;
28343;SDS011;15597;50.914;6.638;2023-04-24T10:55:52;6.25;;;2.42;;
28343;SDS011;15597;50.914;6.638;2023-04-24T10:58:23;6.13;;;2.47;;
28343;SDS011;15597;50.914;6.638;2023-04-24T11:00:56;6.55;;;2.47;;
28343;SDS011;15597;50.914;6.638;2023-04-24T11:13:25;8.57;;;3.83;;
28343;SDS011;15597;50.914;6.638;2023-04-24T11:18:41;7.40;;;2.53;;
28343;SDS011;15597;50.914;6.638;2023-04-24T11:21:11;11.13;;;3.55;;
28343;SDS011;15597;50.914;6.638;2023-04-24T11:23:38;5.47;;;2.35;;
28343;SDS011;15597;50.914;6.638;2023-04-24T11:26:18;5.72;;;2.70;;
28343;SDS011;15597;50.914;6.638;2023-04-24T11:28:49;6.10;;;2.47;;
28343;SDS011;15597;50.914;6.638;2023-04-24T11:31:37;11.85;;;3.47;;
28343;SDS011;15597;50.914;6.638;2023-04-24T11:34:08;11.88;;;3.58;;
28343;SDS011;15597;50.914;6.638;2023-04-24T11:36:36;7.20;;;2.05;;
28343;SDS011;15597;50.914;6.638;2023-04-24T11:39:02;6.57;;;2.97;;
28343;SDS011;15597;50.914;6.638;2023-04-24T11:41:28;5.75;;;2.55;;
28343;SDS011;15597;50.914;6.638;2023-04-24T11:43:54;6.10;;;2.50;;
28343;SDS011;15597;50.914;6.638;2023-04-24T11:46:21;7.40;;;2.60;;
28343;SDS011;15597;50.914;6.638;2023-04-24T11:48:47;4.55;;;2.20;;
28343;SDS011;15597;50.914;6.638;2023-04-24T11:51:13;7.30;;;2.42;;
28343;SDS011;15597;50.914;6.638;2023-04-24T11:53:39;6.88;;;2.95;;
28343;SDS011;15597;50.914;6.638;2023-04-24T11:56:05;7.65;;;2.70;;
28343;SDS011;15597;50.914;6.638;2023-04-24T11:58:35;7.75;;;2.33;;
28343;SDS011;15597;50.914;6.638;2023-04-24T12:01:01;7.47;;;2.50;;
28343;SDS011;15597;50.914;6.638;2023-04-24T12:03:27;6.47;;;2.78;;
28343;SDS011;15597;50.914;6.638;2023-04-24T12:05:53;9.10;;;3.25;;
28343;SDS011;15597;50.914;6.638;2023-04-24T12:08:30;6.82;;;2.08;;
28343;SDS011;15597;50.914;6.638;2023-04-24T12:10:57;5.50;;;2.15;;
28343;SDS011;15597;50.914;6.638;2023-04-24T12:13:25;8.18;;;2.80;;
28343;SDS011;15597;50.914;6.638;2023-04-24T12:15:50;8.80;;;3.00;;
28343;SDS011;15597;50.914;6.638;2023-04-24T12:18:16;7.35;;;2.60;;
28343;SDS011;15597;50.914;6.638;2023-04-24T12:20:48;6.97;;;3.05;;
28343;SDS011;15597;50.914;6.638;2023-04-24T12:23:13;6.85;;;2.08;;
28343;SDS011;15597;50.914;6.638;2023-04-24T12:25:39;7.38;;;2.60;;
28343;SDS011;15597;50.914;6.638;2023-04-24T12:30:33;7.88;;;2.72;;
28343;SDS011;15597;50.914;6.638;2023-04-24T12:33:03;8.23;;;3.10;;
28343;SDS011;15597;50.914;6.638;2023-04-24T12:35:30;5.78;;;2.60;;
28343;SDS011;15597;50.914;6.638;2023-04-24T12:38:08;7.57;;;2.67;;
28343;SDS011;15597;50.914;6.638;2023-04-24T12:40:35;7.55;;;2.72;;
28343;SDS011;15597;50.914;6.638;2023-04-24T12:43:01;8.98;;;2.70;;
28343;SDS011;15597;50.914;6.638;2023-04-24T12:45:27;5.40;;;2.28;;
28343;SDS011;15597;50.914;6.638;2023-04-24T12:47:53;8.93;;;3.58;;
28343;SDS011;15597;50.914;6.638;2023-04-24T12:50:20;9.23;;;3.42;;
28343;SDS011;15597;50.914;6.638;2023-04-24T12:52:45;6.07;;;2.67;;
28343;SDS011;15597;50.914;6.638;2023-04-24T12:55:11;9.05;;;3.67;;
28343;SDS011;15597;50.914;6.638;2023-04-24T12:57:38;8.05;;;3.90;;
28343;SDS011;15597;50.914;6.638;2023-04-24T13:00:06;8.85;;;3.35;;
28343;SDS011;15597;50.914;6.638;2023-04-24T13:02:33;7.38;;;3.00;;
28343;SDS011;15597;50.914;6.638;2023-04-24T13:04:59;6.20;;;2.55;;
28343;SDS011;15597;50.914;6.638;2023-04-24T13:07:25;10.18;;;3.25;;
28343;SDS011;15597;50.914;6.638;2023-04-24T13:09:51;7.70;;;3.10;;
28343;SDS011;15597;50.914;6.638;2023-04-24T13:12:17;9.52;;;3.72;;
28343;SDS011;15597;50.914;6.638;2023-04-24T13:14:43;8.27;;;3.30;;
28343;SDS011;15597;50.914;6.638;2023-04-24T13:17:09;9.63;;;3.53;;
28343;SDS011;15597;50.914;6.638;2023-04-24T13:19:39;8.52;;;2.80;;
28343;SDS011;15597;50.914;6.638;2023-04-24T13:22:05;5.95;;;2.92;;
28343;SDS011;15597;50.914;6.638;2023-04-24T13:24:32;7.45;;;3.15;;
28343;SDS011;15597;50.914;6.638;2023-04-24T13:26:58;5.82;;;2.20;;
28343;SDS011;15597;50.914;6.638;2023-04-24T13:29:25;9.25;;;2.83;;
28343;SDS011;15597;50.914;6.638;2023-04-24T13:31:51;9.85;;;3.33;;
28343;SDS011;15597;50.914;6.638;2023-04-24T13:34:17;6.55;;;2.92;;
28343;SDS011;15597;50.914;6.638;2023-04-24T13:36:43;6.20;;;2.55;;
28343;SDS011;15597;50.914;6.638;2023-04-24T13:39:09;5.80;;;3.00;;
28343;SDS011;15597;50.914;6.638;2023-04-24T13:41:34;6.93;;;3.28;;
28343;SDS011;15597;50.914;6.638;2023-04-24T13:44:01;5.65;;;2.30;;
28343;SDS011;15597;50.914;6.638;2023-04-24T13:46:27;6.32;;;3.17;;
28343;SDS011;15597;50.914;6.638;2023-04-24T13:48:53;10.23;;;3.63;;
28343;SDS011;15597;50.914;6.638;2023-04-24T13:51:18;8.07;;;3.92;;
28343;SDS011;15597;50.914;6.638;2023-04-24T13:53:44;7.90;;;3.35;;
28343;SDS011;15597;50.914;6.638;2023-04-24T13:56:10;6.65;;;2.65;;
28343;SDS011;15597;50.914;6.638;2023-04-24T13:58:37;8.32;;;3.05;;
28343;SDS011;15597;50.914;6.638;2023-04-24T14:01:03;7.03;;;2.88;;
28343;SDS011;15597;50.914;6.638;2023-04-24T14:03:30;5.50;;;2.30;;
28343;SDS011;15597;50.914;6.638;2023-04-24T14:05:55;8.05;;;3.20;;
28343;SDS011;15597;50.914;6.638;2023-04-24T14:08:21;7.78;;;2.90;;
28343;SDS011;15597;50.914;6.638;2023-04-24T14:10:47;7.75;;;2.95;;
28343;SDS011;15597;50.914;6.638;2023-04-24T14:13:12;7.68;;;3.05;;
28343;SDS011;15597;50.914;6.638;2023-04-24T14:15:38;8.65;;;3.00;;
28343;SDS011;15597;50.914;6.638;2023-04-24T14:18:04;7.35;;;2.55;;
28343;SDS011;15597;50.914;6.638;2023-04-24T14:20:30;7.18;;;2.80;;
28343;SDS011;15597;50.914;6.638;2023-04-24T14:22:56;7.53;;;2.75;;
28343;SDS011;15597;50.914;6.638;2023-04-24T14:25:24;10.18;;;3.28;;
28343;SDS011;15597;50.914;6.638;2023-04-24T14:27:50;5.50;;;2.67;;
28343;SDS011;15597;50.914;6.638;2023-04-24T14:30:15;5.68;;;2.78;;
28343;SDS011;15597;50.914;6.638;2023-04-24T14:32:41;8.68;;;3.45;;
28343;SDS011;15597;50.914;6.638;2023-04-24T14:35:07;8.48;;;2.55;;
28343;SDS011;15597;50.914;6.638;2023-04-24T14:37:32;6.40;;;3.00;;
28343;SDS011;15597;50.914;6.638;2023-04-24T14:39:58;6.32;;;2.95;;
28343;SDS011;15597;50.914;6.638;2023-04-24T14:42:24;5.95;;;2.60;;
28343;SDS011;15597;50.914;6.638;2023-04-24T14:44:49;6.63;;;2.45;;
28343;SDS011;15597;50.914;6.638;2023-04-24T14:47:15;7.47;;;3.00;;
28343;SDS011;15597;50.914;6.638;2023-04-24T14:49:42;7.63;;;2.75;;
28343;SDS011;15597;50.914;6.638;2023-04-24T14:52:09;5.43;;;2.97;;
28343;SDS011;15597;50.914;6.638;2023-04-24T14:54:35;6.13;;;2.70;;
28343;SDS011;15597;50.914;6.638;2023-04-24T14:57:01;4.47;;;2.17;;
28343;SDS011;15597;50.914;6.638;2023-04-24T14:59:29;8.38;;;3.20;;
28343;SDS011;15597;50.914;6.638;2023-04-24T15:01:56;5.30;;;2.63;;
28343;SDS011;15597;50.914;6.638;2023-04-24T15:04:26;5.97;;;2.50;;
28343;SDS011;15597;50.914;6.638;2023-04-24T15:06:54;7.18;;;2.88;;
28343;SDS011;15597;50.914;6.638;2023-04-24T15:09:22;8.48;;;3.85;;
28343;SDS011;15597;50.914;6.638;2023-04-24T15:11:49;7.40;;;2.60;;
28343;SDS011;15597;50.914;6.638;2023-04-24T15:14:17;8.13;;;3.00;;
28343;SDS011;15597;50.914;6.638;2023-04-24T15:16:44;7.40;;;2.78;;
28343;SDS011;15597;50.914;6.638;2023-04-24T15:19:11;6.55;;;2.55;;